createdAt,value
2018-08-30T00:02:56.845Z,100920.44
2018-08-30T00:06:01.144Z,100906.39
2018-08-30T00:09:06.410Z,100910.30
2018-08-30T00:12:10.738Z,100909.80
2018-08-30T00:15:15.128Z,100909.43
2018-08-30T00:18:19.437Z,100910.78
2018-08-30T00:21:23.733Z,100911.31
2018-08-30T00:24:28.067Z,100914.02
2018-08-30T00:27:32.369Z,100911.87
2018-08-30T00:30:36.684Z,100919.34
2018-08-30T00:33:41.128Z,100912.81
2018-08-30T00:36:45.429Z,100914.58
2018-08-30T00:39:49.699Z,100913.75
2018-08-30T00:42:54.076Z,100913.75
2018-08-30T00:45:58.369Z,100915.96
2018-08-30T00:49:02.735Z,100915.99
2018-08-30T00:52:07.041Z,100923.46
2018-08-30T00:55:11.710Z,100927.81
2018-08-30T00:58:15.984Z,100927.84
2018-08-30T01:01:20.274Z,100929.16
2018-08-30T01:04:24.522Z,100945.37
2018-08-30T01:07:28.836Z,100946.69
2018-08-30T01:10:33.109Z,100944.52
2018-08-30T01:13:37.470Z,100937.94
2018-08-30T01:16:41.819Z,100938.81
2018-08-30T01:19:46.131Z,100947.14
2018-08-30T01:22:50.424Z,100945.41
2018-08-30T01:25:54.753Z,100937.55
2018-08-30T01:28:59.061Z,100938.86
2018-08-30T01:32:03.729Z,100926.62
2018-08-30T01:35:08.164Z,100933.22
2018-08-30T01:38:12.449Z,100932.80
2018-08-30T01:41:16.700Z,100937.61
2018-08-30T01:44:20.967Z,100937.64
2018-08-30T01:47:25.442Z,100935.01
2018-08-30T01:50:29.824Z,100930.66
2018-08-30T01:53:34.136Z,100926.27
2018-08-30T01:56:38.449Z,100926.30
2018-08-30T01:59:42.908Z,100930.65
2018-08-30T02:02:47.227Z,100924.11
2018-08-30T02:05:51.519Z,100926.73
2018-08-30T02:08:55.819Z,100923.69
2018-08-30T02:12:00.517Z,100914.92
2018-08-30T02:15:04.796Z,100922.80
2018-08-30T02:18:09.092Z,100924.56
2018-08-30T02:21:13.434Z,100922.80
2018-08-30T02:24:17.688Z,100924.08
2018-08-30T02:27:21.993Z,100928.02
2018-08-30T02:30:26.288Z,100932.83
2018-08-30T02:33:30.550Z,100930.20
2018-08-30T02:36:34.933Z,100935.01
2018-08-30T02:39:39.188Z,100932.38
2018-08-30T02:42:43.590Z,100921.91
2018-08-30T02:45:47.873Z,100922.77
2018-08-30T02:48:52.374Z,100932.38
2018-08-30T02:51:56.604Z,100927.16
2018-08-30T02:55:00.929Z,100926.70
2018-08-30T02:58:05.264Z,100934.59
2018-08-30T03:01:09.575Z,100934.17
2018-08-30T03:04:13.913Z,100945.99
2018-08-30T03:07:18.201Z,100945.13
2018-08-30T03:10:22.529Z,100944.70
2018-08-30T03:13:26.843Z,100942.97
2018-08-30T03:16:31.164Z,100946.48
2018-08-30T03:19:35.490Z,100952.21
2018-08-30T03:22:40.605Z,100947.84
2018-08-30T03:25:44.938Z,100946.56
2018-08-30T03:28:49.252Z,100945.72
2018-08-30T03:31:53.537Z,100954.06
2018-08-30T03:34:58.363Z,100951.87
2018-08-30T03:38:02.726Z,100948.40
2018-08-30T03:41:07.039Z,100957.61
2018-08-30T03:44:11.371Z,100955.87
2018-08-30T03:47:15.647Z,100955.00
2018-08-30T03:50:20.013Z,100956.75
2018-08-30T03:53:24.352Z,100960.69
2018-08-30T03:56:28.631Z,100970.31
2018-08-30T03:59:33.241Z,100968.13
2018-08-30T04:02:37.591Z,100967.28
2018-08-30T04:05:41.960Z,100970.81
2018-08-30T04:08:46.237Z,100969.49
2018-08-30T04:11:50.699Z,100965.97
2018-08-30T04:14:54.964Z,100969.92
2018-08-30T04:17:59.443Z,100965.12
2018-08-30T04:21:03.765Z,100966.00
2018-08-30T04:24:09.098Z,100958.13
2018-08-30T04:27:13.558Z,100962.94
2018-08-30T04:30:18.073Z,100967.32
2018-08-30T04:33:22.426Z,100969.50
2018-08-30T04:36:27.009Z,100959.90
2018-08-30T04:39:31.283Z,100968.22
2018-08-30T04:42:35.621Z,100965.14
2018-08-30T04:45:39.936Z,100972.59
2018-08-30T04:48:44.195Z,100976.95
2018-08-30T04:51:48.541Z,100978.72
2018-08-30T04:54:52.847Z,100975.63
2018-08-30T04:57:57.206Z,100981.75
2018-08-30T05:01:01.501Z,100984.39
2018-08-30T05:04:06.419Z,100982.19
2018-08-30T05:07:10.727Z,100982.64
2018-08-30T05:10:14.884Z,100986.58
2018-08-30T05:13:19.174Z,100990.94
2018-08-30T05:16:23.418Z,100993.55
2018-08-30T05:19:27.670Z,100999.68
2018-08-30T05:22:31.954Z,100989.63
2018-08-30T05:25:36.538Z,100992.26
2018-08-30T05:28:40.817Z,100998.80
2018-08-30T05:31:45.099Z,100997.95
2018-08-30T05:34:49.420Z,101004.51
2018-08-30T05:37:53.850Z,101002.32
2018-08-30T05:40:58.124Z,101009.73
2018-08-30T05:44:02.572Z,101009.31
2018-08-30T05:47:06.945Z,101013.25
2018-08-30T05:50:11.248Z,101013.25
2018-08-30T05:53:15.565Z,101014.13
2018-08-30T05:56:19.891Z,101014.14
2018-08-30T05:59:24.189Z,101010.20
2018-08-30T06:02:29.475Z,101017.63
2018-08-30T06:05:33.706Z,101017.64
2018-08-30T06:08:38.068Z,101010.64
2018-08-30T06:11:46.519Z,101011.94
2018-08-30T06:14:50.808Z,101011.52
2018-08-30T06:17:55.153Z,101009.77
2018-08-30T06:20:59.444Z,101013.28
2018-08-30T06:24:03.860Z,101012.38
2018-08-30T06:27:08.203Z,101010.64
2018-08-30T06:30:12.454Z,101017.65
2018-08-30T06:33:16.820Z,101019.81
2018-08-30T06:36:21.088Z,101013.27
2018-08-30T06:39:25.458Z,101009.77
2018-08-30T06:42:29.801Z,101014.59
2018-08-30T06:45:34.307Z,101030.34
2018-08-30T06:48:38.900Z,101029.89
2018-08-30T06:51:43.413Z,101031.20
2018-08-30T06:54:47.805Z,101028.59
2018-08-30T06:57:52.090Z,101038.20
2018-08-30T07:00:56.379Z,101038.20
2018-08-30T07:04:00.751Z,101044.77
2018-08-30T07:07:05.037Z,101045.66
2018-08-30T07:10:09.408Z,101048.27
2018-08-30T07:13:13.706Z,101048.27
2018-08-30T07:16:18.120Z,101060.50
2018-08-30T07:19:22.457Z,101057.44
2018-08-30T07:22:26.712Z,101060.50
2018-08-30T07:25:31.017Z,101064.44
2018-08-30T07:28:35.524Z,101064.00
2018-08-30T07:31:39.807Z,101068.38
2018-08-30T07:34:44.200Z,101065.74
2018-08-30T07:37:48.470Z,101070.11
2018-08-30T07:40:52.767Z,101069.69
2018-08-30T07:43:57.139Z,101079.72
2018-08-30T07:47:01.395Z,101074.94
2018-08-30T07:50:06.261Z,101071.00
2018-08-30T07:53:10.334Z,101075.79
2018-08-30T07:56:14.684Z,101077.10
2018-08-30T07:59:19.086Z,101088.03
2018-08-30T08:02:23.397Z,101090.22
2018-08-30T08:05:27.785Z,101090.66
2018-08-30T08:08:32.053Z,101091.96
2018-08-30T08:11:36.176Z,101098.95
2018-08-30T08:14:40.501Z,101105.50
2018-08-30T08:17:45.001Z,101102.02
2018-08-30T08:20:49.287Z,101104.65
2018-08-30T08:23:53.674Z,101111.20
2018-08-30T08:26:57.976Z,101109.89
2018-08-30T08:30:02.118Z,101119.05
2018-08-30T08:33:06.399Z,101111.19
2018-08-30T08:36:10.657Z,101120.38
2018-08-30T08:39:15.046Z,101117.31
2018-08-30T08:42:19.384Z,101120.80
2018-08-30T08:45:23.807Z,101119.95
2018-08-30T08:48:28.107Z,101118.63
2018-08-30T08:51:32.427Z,101123.45
2018-08-30T08:54:36.729Z,101122.13
2018-08-30T08:57:41.072Z,101133.48
2018-08-30T09:00:45.439Z,101132.16
2018-08-30T09:03:49.788Z,101138.30
2018-08-30T09:06:54.180Z,101140.03
2018-08-30T09:09:58.524Z,101140.04
2018-08-30T09:13:02.883Z,101144.40
2018-08-30T09:16:07.147Z,101135.23
2018-08-30T09:19:11.523Z,101147.02
2018-08-30T09:22:15.827Z,101150.06
2018-08-30T09:25:20.109Z,101156.20
2018-08-30T09:28:24.489Z,101164.48
2018-08-30T09:31:28.814Z,101161.88
2018-08-30T09:34:33.132Z,101161.00
2018-08-30T09:37:39.086Z,101164.06
2018-08-30T09:40:43.427Z,101162.72
2018-08-30T09:43:47.779Z,101166.20
2018-08-30T09:46:51.932Z,101173.18
2018-08-30T09:49:56.246Z,101174.05
2018-08-30T09:53:00.673Z,101170.96
2018-08-30T09:56:05.255Z,101173.13
2018-08-30T09:59:09.318Z,101173.59
2018-08-30T10:02:18.948Z,101181.44
2018-08-30T10:05:23.286Z,101181.86
2018-08-30T10:08:27.586Z,101193.23
2018-08-30T10:11:31.740Z,101191.03
2018-08-30T10:14:36.078Z,101199.78
2018-08-30T10:17:40.517Z,101205.86
2018-08-30T10:20:44.864Z,101212.41
2018-08-30T10:23:48.966Z,101216.78
2018-08-30T10:26:53.314Z,101218.52
2018-08-30T10:29:57.676Z,101215.47
2018-08-30T10:33:03.199Z,101217.23
2018-08-30T10:36:07.563Z,101218.55
2018-08-30T10:39:11.835Z,101216.80
2018-08-30T10:42:16.456Z,101222.92
2018-08-30T10:45:20.854Z,101222.50
2018-08-30T10:48:25.102Z,101229.96
2018-08-30T10:51:29.475Z,101218.58
2018-08-30T10:54:33.753Z,101225.98
2018-08-30T10:57:38.093Z,101224.27
2018-08-30T11:00:42.144Z,101240.86
2018-08-30T11:03:46.484Z,101243.06
2018-08-30T11:06:50.796Z,101242.16
2018-08-30T11:09:55.241Z,101248.25
2018-08-30T11:12:59.429Z,101252.59
2018-08-30T11:16:04.636Z,101253.01
2018-08-30T11:32:50.458Z,101272.04
2018-08-30T11:35:54.764Z,101288.17
2018-08-30T11:38:59.055Z,101286.42
2018-08-30T11:42:03.484Z,101294.70
2018-08-30T11:45:09.375Z,101290.25
2018-08-30T11:48:13.727Z,101288.95
2018-08-30T11:51:18.082Z,101292.84
2018-08-30T11:54:22.596Z,101295.00
2018-08-30T11:57:26.966Z,101297.23
2018-08-30T12:00:31.363Z,101308.16
2018-08-30T12:03:35.794Z,101306.39
2018-08-30T12:06:40.190Z,101310.34
2018-08-30T12:09:44.511Z,101316.46
2018-08-30T12:12:48.893Z,101317.73
2018-08-30T12:15:53.478Z,101317.78
2018-08-30T12:18:57.966Z,101321.81
2018-08-30T12:22:02.292Z,101323.99
2018-08-30T12:25:06.771Z,101323.14
2018-08-30T12:28:11.144Z,101329.28
2018-08-30T12:31:15.630Z,101324.92
2018-08-30T12:34:20.104Z,101323.19
2018-08-30T12:37:24.792Z,101334.57
2018-08-30T12:40:29.249Z,101332.37
2018-08-30T12:43:33.609Z,101331.98
2018-08-30T12:46:38.010Z,101328.46
2018-08-30T12:49:42.477Z,101336.33
2018-08-30T12:52:46.811Z,101331.56
2018-08-30T12:55:51.221Z,101332.52
2018-08-30T13:00:00.143Z,101341.23
2018-08-30T13:03:04.683Z,101339.05
2018-08-30T13:06:09.173Z,101339.48
2018-08-30T13:09:15.345Z,101346.08
2018-08-30T13:12:19.579Z,101343.02
2018-08-30T13:15:24.097Z,101344.36
2018-08-30T13:18:28.427Z,101347.42
2018-08-30T13:21:32.891Z,101353.98
2018-08-30T13:24:37.433Z,101347.00
2018-08-30T13:27:41.757Z,101352.67
2018-08-30T13:30:46.416Z,101350.94
2018-08-30T13:33:50.917Z,101361.42
2018-08-30T13:36:56.559Z,101359.27
2018-08-30T13:40:01.098Z,101361.45
2018-08-30T13:43:05.500Z,101361.01
2018-08-30T13:46:09.772Z,101363.66
2018-08-30T13:49:13.896Z,101363.23
2018-08-30T13:52:18.379Z,101362.38
2018-08-30T13:55:22.828Z,101361.50
2018-08-30T13:58:27.403Z,101362.41
2018-08-30T14:01:31.893Z,101364.58
2018-08-30T14:04:35.706Z,101359.79
2018-08-30T14:07:40.171Z,101366.81
2018-08-30T14:10:44.588Z,101364.63
2018-08-30T14:13:48.893Z,101376.00
2018-08-30T14:16:52.978Z,101373.81
2018-08-30T14:19:57.387Z,101375.12
2018-08-30T14:23:01.724Z,101370.34
2018-08-30T14:26:05.944Z,101367.72
2018-08-30T14:29:10.413Z,101367.31
2018-08-30T14:32:14.766Z,101369.96
2018-08-30T14:35:19.152Z,101363.88
2018-08-30T14:38:23.552Z,101375.29
2018-08-30T14:41:28.127Z,101373.55
2018-08-30T14:44:32.255Z,101371.83
2018-08-30T14:47:36.788Z,101366.65
2018-08-30T14:50:41.118Z,101368.83
2018-08-30T14:53:45.443Z,101374.55
2018-08-30T14:56:50.232Z,101374.58
2018-08-30T14:59:54.547Z,101375.47
2018-08-30T15:02:58.955Z,101378.07
2018-08-30T15:06:03.405Z,101385.09
2018-08-30T15:09:09.032Z,101384.66
2018-08-30T15:12:13.548Z,101387.29
2018-08-30T15:15:17.943Z,101385.08
2018-08-30T15:18:22.262Z,101389.41
2018-08-30T15:21:26.665Z,101387.58
2018-08-30T15:24:31.013Z,101385.39
2018-08-30T15:27:35.671Z,101388.30
2018-08-30T15:30:39.951Z,101393.91
2018-08-30T15:33:44.451Z,101397.95
2018-08-30T15:36:48.818Z,101396.70
2018-08-30T15:39:53.208Z,101398.91
2018-08-30T15:42:57.501Z,101397.92
2018-08-30T15:46:01.857Z,101398.48
2018-08-30T15:49:06.193Z,101403.51
2018-08-30T15:52:10.559Z,101408.67
2018-08-30T15:55:14.912Z,101403.86
2018-08-30T15:58:19.241Z,101408.48
2018-08-30T16:01:23.657Z,101409.69
2018-08-30T16:04:28.082Z,101417.27
2018-08-30T16:07:32.509Z,101417.11
2018-08-30T16:10:36.893Z,101415.67
2018-08-30T16:13:41.236Z,101422.48
2018-08-30T16:16:45.528Z,101425.25
2018-08-30T16:19:49.869Z,101416.14
2018-08-30T16:23:27.762Z,101428.01
2018-08-30T16:26:32.157Z,101422.75
2018-08-30T16:29:36.517Z,101425.80
2018-08-30T16:32:40.966Z,101434.13
2018-08-30T16:35:45.396Z,101434.13
2018-08-30T16:38:49.761Z,101438.06
2018-08-30T16:41:54.354Z,101444.63
2018-08-30T16:44:59.287Z,101446.38
2018-08-30T16:48:03.767Z,101450.32
2018-08-30T16:51:08.380Z,101450.78
2018-08-30T16:54:12.714Z,101457.34
2018-08-30T16:57:16.994Z,101454.30
2018-08-30T17:00:21.268Z,101460.87
2018-08-30T17:03:25.662Z,101468.31
2018-08-30T17:06:29.970Z,101468.32
2018-08-30T17:09:34.327Z,101477.08
2018-08-30T17:12:38.741Z,101470.52
2018-08-30T17:15:43.146Z,101481.41
2018-08-30T17:18:50.708Z,101480.42
2018-08-30T17:21:55.041Z,101489.94
2018-08-30T17:24:59.412Z,101484.56
2018-08-30T17:28:03.724Z,101484.49
2018-08-30T17:31:08.187Z,101485.64
2018-08-30T17:34:12.523Z,101498.22
2018-08-30T17:37:16.890Z,101495.09
2018-08-30T17:40:21.346Z,101498.94
2018-08-30T17:43:25.814Z,101498.44
2018-08-30T17:46:30.222Z,101499.61
2018-08-30T17:49:34.492Z,101503.08
2018-08-30T17:52:38.837Z,101509.14
2018-08-30T17:55:43.221Z,101513.88
2018-08-30T17:58:47.661Z,101518.63
2018-08-30T18:01:52.026Z,101517.67
2018-08-30T18:04:56.486Z,101524.13
2018-08-30T18:08:01.891Z,101520.12
2018-08-30T18:11:06.517Z,101526.54
2018-08-30T18:14:10.946Z,101531.28
2018-08-30T18:17:15.417Z,101532.96
2018-08-30T18:20:19.937Z,101541.62
2018-08-30T18:23:24.482Z,101544.14
2018-08-30T18:26:28.980Z,101550.17
2018-08-30T18:29:33.390Z,101562.75
2018-08-30T18:32:38.094Z,101565.22
2018-08-30T18:35:42.628Z,101568.16
2018-08-30T18:38:47.069Z,101574.15
2018-08-30T18:41:52.742Z,101573.23
2018-08-30T18:44:57.342Z,101573.16
2018-08-30T18:48:01.879Z,101572.65
2018-08-30T18:51:06.515Z,101580.85
2018-08-30T18:54:11.237Z,101573.84
2018-08-30T18:57:15.651Z,101576.37
2018-08-30T19:00:20.190Z,101576.33
2018-08-30T19:03:24.571Z,101589.36
2018-08-30T19:06:29.036Z,101597.07
2018-08-30T19:09:33.598Z,101604.81
2018-08-30T19:12:38.581Z,101602.16
2018-08-30T19:15:48.344Z,101609.87
2018-08-30T19:18:58.070Z,101618.18
2018-08-30T19:22:02.732Z,101611.12
2018-08-30T19:25:12.513Z,101616.74
2018-08-30T19:28:25.718Z,101611.42
2018-08-30T19:31:30.109Z,101610.84
2018-08-30T19:34:34.451Z,101615.06
2018-08-30T19:37:38.852Z,101614.14
2018-08-30T19:40:48.570Z,101621.10
2018-08-30T19:43:53.886Z,101620.96
2018-08-30T19:46:58.373Z,101622.59
2018-08-30T19:50:02.690Z,101628.09
2018-08-30T19:53:07.114Z,101628.82
2018-08-30T19:56:12.374Z,101623.59
2018-08-30T19:59:16.715Z,101634.53
2018-08-30T20:02:21.120Z,101635.83
2018-08-30T20:05:25.527Z,101634.38
2018-08-30T20:08:29.881Z,101634.36
2018-08-30T20:11:35.191Z,101633.11
2018-08-30T20:14:39.516Z,101628.77
2018-08-30T20:17:43.913Z,101633.98
2018-08-30T20:20:48.256Z,101636.59
2018-08-30T20:23:52.660Z,101640.45
2018-08-30T20:26:57.112Z,101640.36
2018-08-30T20:30:01.546Z,101639.58
2018-08-30T20:33:06.493Z,101643.84
2018-08-30T20:36:10.847Z,101645.12
2018-08-30T20:39:15.172Z,101642.52
2018-08-30T20:42:20.570Z,101647.68
2018-08-30T20:45:25.079Z,101648.98
2018-08-30T20:48:29.387Z,101651.03
2018-08-30T20:51:33.704Z,101650.43
2018-08-30T20:54:38.027Z,101652.12
2018-08-30T20:57:42.362Z,101647.00
2018-08-30T21:00:47.252Z,101656.47
2018-08-30T21:03:51.589Z,101658.62
2018-08-30T21:06:55.885Z,101647.96
2018-08-30T21:10:00.261Z,101646.66
2018-08-30T21:13:04.706Z,101650.41
2018-08-30T21:16:09.105Z,101649.59
2018-08-30T21:19:13.403Z,101652.58
2018-08-30T21:22:17.745Z,101649.97
2018-08-30T21:25:22.064Z,101655.50
2018-08-30T21:28:26.633Z,101652.35
2018-08-30T21:31:30.995Z,101654.84
2018-08-30T21:34:35.482Z,101655.70
2018-08-30T21:37:39.807Z,101657.82
2018-08-30T21:40:44.150Z,101659.88
2018-08-30T21:43:48.536Z,101661.19
2018-08-30T21:46:52.819Z,101664.29
2018-08-30T21:49:57.150Z,101663.10
2018-08-30T21:53:01.415Z,101658.25
2018-08-30T21:56:05.704Z,101668.25
2018-08-30T21:59:10.000Z,101666.83
2018-08-30T22:02:14.331Z,101666.31
2018-08-30T22:05:18.660Z,101662.36
2018-08-30T22:08:22.979Z,101668.74
2018-08-30T22:11:27.307Z,101668.19
2018-08-30T22:14:31.639Z,101667.63
2018-08-30T22:17:35.917Z,101662.84
2018-08-30T22:20:40.265Z,101668.38
2018-08-30T22:23:44.639Z,101665.70
2018-08-30T22:26:49.012Z,101666.58
2018-08-30T22:29:53.269Z,101672.65
2018-08-30T22:32:57.649Z,101664.78
2018-08-30T22:36:02.194Z,101664.70
2018-08-30T22:39:07.899Z,101664.26
2018-08-30T22:42:12.176Z,101664.20
2018-08-30T22:45:16.464Z,101666.31
2018-08-30T22:48:20.963Z,101667.49
2018-08-30T22:51:25.306Z,101666.55
2018-08-30T22:54:29.791Z,101662.94
2018-08-30T22:57:34.083Z,101664.87
2018-08-30T23:00:38.402Z,101672.56
2018-08-30T23:03:42.713Z,101670.45
2018-08-30T23:06:47.080Z,101673.19
2018-08-30T23:09:51.368Z,101672.78
2018-08-30T23:12:55.678Z,101671.47
2018-08-30T23:15:59.970Z,101665.31
2018-08-30T23:19:04.600Z,101664.39
2018-08-30T23:22:08.957Z,101660.46
2018-08-30T23:25:13.262Z,101664.31
2018-08-30T23:28:17.608Z,101659.96
2018-08-30T23:31:21.921Z,101656.45
2018-08-30T23:34:26.326Z,101659.10
2018-08-30T23:37:30.603Z,101664.27
2018-08-30T23:40:34.871Z,101662.06
2018-08-30T23:43:39.217Z,101664.19
2018-08-30T23:46:43.494Z,101655.88
2018-08-30T23:49:47.834Z,101653.32
2018-08-30T23:52:52.144Z,101657.66
2018-08-30T23:55:56.394Z,101661.88
2018-08-30T23:59:17.877Z,101662.73
